createdAt,value
2024-02-02T00:01:00.064Z,3
2024-02-02T00:06:00.123Z,3
2024-02-02T00:11:00.089Z,3.6
2024-02-02T00:16:00.063Z,2.7
2024-02-02T00:21:00.079Z,3.6
2024-02-02T00:26:00.096Z,3.7
2024-02-02T00:31:00.073Z,3.3
2024-02-02T00:36:00.066Z,3.3
2024-02-02T00:41:00.090Z,3.2
2024-02-02T00:46:00.075Z,3.7
2024-02-02T00:51:00.119Z,4.2
2024-02-02T00:56:00.082Z,3.5
2024-02-02T01:01:00.082Z,3.3
2024-02-02T01:06:00.147Z,3.3
2024-02-02T01:11:02.149Z,3.1
2024-02-02T01:16:00.104Z,3.7
2024-02-02T01:21:00.061Z,3
2024-02-02T01:26:00.069Z,4.5
2024-02-02T01:31:00.030Z,3.1
2024-02-02T01:36:00.100Z,3.1
2024-02-02T01:41:00.068Z,2.7
2024-02-02T01:46:00.054Z,3
2024-02-02T01:51:00.121Z,3.8
2024-02-02T01:56:00.051Z,3.6
2024-02-02T02:01:00.104Z,3.3
2024-02-02T02:06:00.146Z,3.3
2024-02-02T02:11:00.062Z,3.8
2024-02-02T02:16:00.065Z,3.2
2024-02-02T02:21:00.102Z,2.8
2024-02-02T02:26:00.088Z,3.4
2024-02-02T02:31:00.085Z,2.2
2024-02-02T02:36:00.081Z,2.2
2024-02-02T02:41:00.050Z,2.6
2024-02-02T02:46:00.049Z,2.8
2024-02-02T02:51:00.062Z,3.1
2024-02-02T02:56:00.077Z,3
2024-02-02T03:06:00.229Z,3.3
2024-02-02T03:11:00.087Z,2.9
2024-02-02T03:16:00.055Z,3
2024-02-02T03:21:00.066Z,3
2024-02-02T03:26:00.111Z,3.2
2024-02-02T03:31:00.057Z,3.1
2024-02-02T03:36:00.111Z,3.1
2024-02-02T03:41:00.071Z,4.2
2024-02-02T03:46:00.049Z,2.8
2024-02-02T03:51:00.098Z,2.5
2024-02-02T03:56:00.090Z,2.9
2024-02-02T04:01:00.147Z,3.1
2024-02-02T04:06:00.133Z,3.1
2024-02-02T04:11:00.075Z,2.3
2024-02-02T04:16:00.088Z,2.6
2024-02-02T04:21:00.107Z,3.7
2024-02-02T04:26:00.083Z,2.8
2024-02-02T04:31:00.083Z,2.6
2024-02-02T04:36:00.142Z,2.6
2024-02-02T04:41:00.064Z,3
2024-02-02T04:46:00.072Z,2.6
2024-02-02T04:51:00.147Z,2.8
2024-02-02T04:56:00.117Z,2.4
2024-02-02T05:01:00.086Z,2.3
2024-02-02T05:06:00.112Z,2.3
2024-02-02T05:11:00.084Z,2.3
2024-02-02T05:16:00.112Z,2.2
2024-02-02T05:21:00.095Z,1.6
2024-02-02T05:26:00.107Z,2.1
2024-02-02T05:31:00.067Z,2
2024-02-02T05:36:00.094Z,2
2024-02-02T05:41:00.078Z,2.2
2024-02-02T05:46:00.111Z,2
2024-02-02T05:51:00.130Z,1.9
2024-02-02T05:56:00.065Z,1.7
2024-02-02T06:01:00.095Z,2
2024-02-02T06:06:00.242Z,2
2024-02-02T06:11:00.069Z,1.8
2024-02-02T06:16:00.093Z,1.2
2024-02-02T06:21:00.128Z,1.1
2024-02-02T06:26:00.100Z,1
2024-02-02T06:31:00.078Z,1.2
2024-02-02T06:36:00.153Z,1.2
2024-02-02T06:41:00.064Z,1.4
2024-02-02T06:46:00.062Z,2.2
2024-02-02T06:51:01.708Z,1.1
2024-02-02T06:56:00.104Z,0.9
2024-02-02T07:01:00.177Z,1
2024-02-02T07:06:00.140Z,1
2024-02-02T07:11:00.096Z,1
2024-02-02T07:16:00.037Z,0.8
2024-02-02T07:21:00.104Z,0.9
2024-02-02T07:26:00.094Z,1.1
2024-02-02T07:31:00.075Z,1.2
2024-02-02T07:36:00.147Z,1.2
2024-02-02T07:41:00.055Z,1.3
2024-02-02T07:46:00.051Z,1.2
2024-02-02T07:51:00.122Z,1.1
2024-02-02T07:56:00.075Z,1.2
2024-02-02T08:01:00.236Z,1.5
2024-02-02T08:06:00.159Z,1.5
2024-02-02T08:11:00.068Z,1.1
2024-02-02T08:16:00.175Z,1.3
2024-02-02T08:21:00.084Z,1.4
2024-02-02T08:26:00.085Z,1.7
2024-02-02T08:31:00.097Z,1.9
2024-02-02T08:36:00.280Z,1.9
2024-02-02T08:41:00.070Z,1.5
2024-02-02T08:46:00.094Z,1.4
2024-02-02T08:51:00.108Z,1.3
2024-02-02T08:56:00.073Z,1.3
2024-02-02T09:01:00.143Z,1.5
2024-02-02T09:06:00.261Z,1.5
2024-02-02T09:11:00.066Z,1
2024-02-02T09:16:00.131Z,1.2
2024-02-02T09:21:00.056Z,1.1
2024-02-02T09:26:00.104Z,1.2
2024-02-02T09:31:00.070Z,1.3
2024-02-02T09:36:00.098Z,1.3
2024-02-02T09:41:00.112Z,1.1
2024-02-02T09:46:00.078Z,1.3
2024-02-02T09:51:00.294Z,1.6
2024-02-02T09:56:00.092Z,1.4
2024-02-02T10:01:00.113Z,1.9
2024-02-02T10:06:00.134Z,1.9
2024-02-02T10:11:00.074Z,1.9
2024-02-02T10:16:00.109Z,1.6
2024-02-02T10:21:00.160Z,1.7
2024-02-02T10:26:00.080Z,1.4
2024-02-02T10:31:00.179Z,1.4
2024-02-02T10:36:00.187Z,1.4
2024-02-02T10:41:00.059Z,1.3
2024-02-02T10:46:00.100Z,1.3
2024-02-02T10:51:00.109Z,1.1
2024-02-02T10:56:00.110Z,1.3
2024-02-02T11:01:00.190Z,1
2024-02-02T11:06:00.187Z,1
2024-02-02T11:11:00.116Z,1.1
2024-02-02T11:16:00.096Z,1
2024-02-02T11:21:00.097Z,0.9
2024-02-02T11:26:00.075Z,1.1
2024-02-02T11:31:00.071Z,1
2024-02-02T11:36:00.114Z,1
2024-02-02T11:41:00.079Z,1.5
2024-02-02T11:46:00.111Z,1.6
2024-02-02T11:51:00.120Z,1.3
2024-02-02T11:56:00.065Z,1.6
2024-02-02T12:01:00.126Z,1.2
2024-02-02T12:06:00.109Z,1.2
2024-02-02T12:11:00.073Z,1.3
2024-02-02T12:16:00.201Z,1.3
2024-02-02T12:21:00.127Z,1.3
2024-02-02T12:26:00.076Z,1.4
2024-02-02T12:31:00.085Z,1.3
2024-02-02T12:36:06.927Z,1.3
2024-02-02T12:41:00.082Z,1
2024-02-02T12:46:00.138Z,1.1
2024-02-02T12:51:00.124Z,0.8
2024-02-02T12:56:00.146Z,1
2024-02-02T13:01:00.142Z,0.7
2024-02-02T13:06:00.173Z,0.7
2024-02-02T13:11:00.089Z,2.3
2024-02-02T13:16:00.137Z,0.7
2024-02-02T13:26:13.987Z,0.8
2024-02-02T13:31:14.828Z,0.9
2024-02-02T13:36:13.991Z,0.9
2024-02-02T13:41:13.984Z,1
2024-02-02T13:46:13.900Z,1
2024-02-02T13:51:14.139Z,0.9
2024-02-02T13:56:13.943Z,0.8
2024-02-02T14:01:14.142Z,0.9
2024-02-02T14:06:14.024Z,0.9
2024-02-02T14:11:14.354Z,0.8
2024-02-02T14:16:13.925Z,0.7
2024-02-02T14:21:14.142Z,0.8
2024-02-02T14:26:13.965Z,0.9
2024-02-02T14:31:14.130Z,0.8
2024-02-02T14:36:14.089Z,0.8
2024-02-02T14:41:14.136Z,0.8
2024-02-02T14:46:13.997Z,0.8
2024-02-02T14:51:14.167Z,0.8
2024-02-02T14:56:13.938Z,0.8
2024-02-02T15:01:14.171Z,0.6
2024-02-02T15:06:14.067Z,0.6
2024-02-02T15:11:13.995Z,0.6
2024-02-02T15:16:13.895Z,0.7
2024-02-02T15:21:14.176Z,0.8
2024-02-02T15:26:13.919Z,0.8
2024-02-02T15:31:13.996Z,0.7
2024-02-02T15:36:13.957Z,0.7
2024-02-02T15:41:13.959Z,0.6
2024-02-02T15:46:13.892Z,0.4
2024-02-02T15:51:13.980Z,0.9
2024-02-02T15:56:13.915Z,0.6
2024-02-02T16:01:14.044Z,0.4
2024-02-02T16:06:13.935Z,0.4
2024-02-02T16:11:13.993Z,0.6
2024-02-02T16:16:13.915Z,0.6
2024-02-02T16:21:14.166Z,0.4
2024-02-02T16:26:13.886Z,0.4
2024-02-02T16:31:14.007Z,0.6
2024-02-02T16:36:13.930Z,0.6
2024-02-02T16:41:13.969Z,0.6
2024-02-02T16:46:13.930Z,0.6
2024-02-02T16:51:14.013Z,1.7
2024-02-02T16:56:13.907Z,2.7
2024-02-02T17:01:14.018Z,1.3
2024-02-02T17:06:14.028Z,1.3
2024-02-02T17:11:14.011Z,1.3
2024-02-02T17:16:13.921Z,0.9
2024-02-02T17:26:13.902Z,1.4
2024-02-02T17:31:13.994Z,1.9
2024-02-02T17:36:13.955Z,1.9
2024-02-02T17:41:13.987Z,0.9
2024-02-02T17:46:13.939Z,0.7
2024-02-02T17:51:14.080Z,0.7
2024-02-02T17:56:13.952Z,0.7
2024-02-02T18:01:13.979Z,0.6
2024-02-02T18:06:14.023Z,0.6
2024-02-02T18:11:13.971Z,0.8
2024-02-02T18:16:14.426Z,0.7
2024-02-02T18:21:14.022Z,0.6
2024-02-02T18:26:13.924Z,0.8
2024-02-02T18:31:13.964Z,0.5
2024-02-02T18:36:13.970Z,0.5
2024-02-02T18:41:13.987Z,0.9
2024-02-02T18:46:13.953Z,0.9
2024-02-02T18:51:14.172Z,0.7
2024-02-02T18:56:13.936Z,0.8
2024-02-02T19:01:13.994Z,0.8
2024-02-02T19:06:14.021Z,0.8
2024-02-02T19:11:14.017Z,1
2024-02-02T19:16:13.937Z,1.7
2024-02-02T19:21:14.028Z,1.3
2024-02-02T19:26:13.939Z,1.2
2024-02-02T19:31:13.992Z,1.6
2024-02-02T19:36:13.962Z,1.6
2024-02-02T19:41:14.024Z,1.3
2024-02-02T19:46:13.944Z,1.3
2024-02-02T19:51:14.231Z,1.1
2024-02-02T19:56:13.925Z,0.9
2024-02-02T20:01:14.141Z,0.7
2024-02-02T20:06:14.083Z,0.7
2024-02-02T20:11:14.006Z,1.2
2024-02-02T20:16:13.968Z,0.8
2024-02-02T20:21:14.076Z,1
2024-02-02T20:26:13.965Z,1
2024-02-02T20:31:14.003Z,1
2024-02-02T20:36:13.980Z,1
2024-02-02T20:41:14.191Z,0.8
2024-02-02T20:46:14.028Z,0.9
2024-02-02T20:51:16.247Z,0.8
2024-02-02T20:56:13.951Z,1.2
2024-02-02T21:01:14.102Z,1
2024-02-02T21:06:14.281Z,1
2024-02-02T21:11:14.024Z,0.8
2024-02-02T21:16:13.983Z,1
2024-02-02T21:21:14.215Z,1
2024-02-02T21:26:13.953Z,1
2024-02-02T21:31:14.011Z,1
2024-02-02T21:36:14.010Z,1
2024-02-02T21:41:13.987Z,1.2
2024-02-02T21:46:13.955Z,1.4
2024-02-02T21:51:14.035Z,1.3
2024-02-02T21:56:13.959Z,0.9
2024-02-02T22:01:14.088Z,1
2024-02-02T22:06:14.011Z,1
2024-02-02T22:11:13.992Z,1.5
2024-02-02T22:16:13.955Z,1.1
2024-02-02T22:21:14.012Z,1.1
2024-02-02T22:26:13.946Z,1.1
2024-02-02T22:31:14.221Z,1.1
2024-02-02T22:36:13.997Z,1
2024-02-02T22:41:24.648Z,0.9
2024-02-02T22:46:13.979Z,0.8
2024-02-02T22:51:14.186Z,0.7
2024-02-02T22:56:13.964Z,1
2024-02-02T23:01:14.456Z,1
2024-02-02T23:06:14.071Z,1
2024-02-02T23:11:14.195Z,1.2
2024-02-02T23:21:14.511Z,1
2024-02-02T23:26:14.318Z,1
2024-02-02T23:31:14.239Z,1
2024-02-02T23:36:14.119Z,1
2024-02-02T23:41:14.247Z,1.3
2024-02-02T23:46:14.007Z,1
2024-02-02T23:51:14.278Z,0.9
2024-02-02T23:56:14.032Z,0.9
